createdAt,value
2022-10-03T00:00:04.621Z,83.71
2022-10-03T00:01:54.454Z,84.64
2022-10-03T00:03:35.032Z,84.47
2022-10-03T00:04:58.598Z,83.98
2022-10-03T00:06:13.611Z,83.89
2022-10-03T00:07:27.831Z,83.84
2022-10-03T00:09:04.695Z,83.74
2022-10-03T00:10:28.624Z,84.36
2022-10-03T00:11:39.360Z,83.75
2022-10-03T00:12:50.032Z,83.84
2022-10-03T00:14:13.305Z,83.93
2022-10-03T00:15:56.773Z,83.91
2022-10-03T00:17:10.733Z,83.81
2022-10-03T00:18:35.594Z,83.56
2022-10-03T00:19:51.419Z,84.16
2022-10-03T00:21:08.707Z,84.01
2022-10-03T00:22:31.918Z,83.96
2022-10-03T00:24:12.161Z,83.46
2022-10-03T00:25:27.756Z,83.55
2022-10-03T00:26:38.578Z,83.46
2022-10-03T00:27:50.703Z,83.47
2022-10-03T00:29:13.865Z,83.65
2022-10-03T00:30:22.271Z,83.76
2022-10-03T00:31:35.505Z,83.54
2022-10-03T00:33:14.369Z,83.50
2022-10-03T00:34:40.543Z,83.53
2022-10-03T00:35:54.047Z,84.32
2022-10-03T00:37:04.858Z,84.14
2022-10-03T00:38:06.464Z,83.63
2022-10-03T00:39:18.659Z,83.75
2022-10-03T00:40:38.242Z,83.62
2022-10-03T00:42:14.274Z,83.48
2022-10-03T00:43:33.980Z,83.43
2022-10-03T00:45:07.647Z,84.14
2022-10-03T00:46:33.947Z,83.71
2022-10-03T00:48:12.602Z,83.36
2022-10-03T00:49:52.383Z,85.10
2022-10-03T00:51:30.546Z,84.16
2022-10-03T00:52:52.262Z,83.53
2022-10-03T00:54:08.181Z,83.88
2022-10-03T00:55:27.113Z,83.44
2022-10-03T00:57:05.995Z,83.35
2022-10-03T00:58:27.810Z,83.10
2022-10-03T00:59:48.296Z,83.12
2022-10-03T01:00:51.126Z,83.35
2022-10-03T01:01:53.534Z,83.45
2022-10-03T01:03:22.785Z,83.75
2022-10-03T01:04:27.133Z,84.25
2022-10-03T01:05:50.921Z,84.52
2022-10-03T01:07:02.795Z,84.52
2022-10-03T01:08:07.160Z,85.11
2022-10-03T01:09:21.312Z,84.67
2022-10-03T01:10:41.195Z,84.73
2022-10-03T01:12:17.306Z,85.94
2022-10-03T01:13:33.888Z,85.13
2022-10-03T01:15:02.690Z,84.85
2022-10-03T01:16:16.637Z,85.16
2022-10-03T01:17:27.581Z,84.96
2022-10-03T01:18:55.705Z,84.80
2022-10-03T01:20:03.964Z,85.02
2022-10-03T01:21:32.981Z,84.89
2022-10-03T01:22:49.870Z,84.78
2022-10-03T01:23:51.821Z,85.23
2022-10-03T01:25:01.532Z,84.90
2022-10-03T01:26:24.848Z,84.56
2022-10-03T01:28:10.135Z,84.66
2022-10-03T01:29:35.992Z,85.99
2022-10-03T01:31:32.237Z,85.37
2022-10-03T01:32:48.055Z,85.91
2022-10-03T01:34:17.460Z,85.13
2022-10-03T01:35:47.306Z,85.11
2022-10-03T01:37:07.290Z,85.65
2022-10-03T01:38:19.736Z,85.17
2022-10-03T01:39:34.956Z,85.23
2022-10-03T01:40:36.616Z,85.65
2022-10-03T01:41:58.435Z,85.32
2022-10-03T01:43:02.164Z,85.43
2022-10-03T01:44:13.633Z,85.38
2022-10-03T01:45:28.827Z,85.14
2022-10-03T01:46:51.758Z,86.05
2022-10-03T01:48:12.085Z,86.48
2022-10-03T01:49:25.227Z,85.54
2022-10-03T01:50:47.773Z,85.34
2022-10-03T01:51:59.480Z,85.45
2022-10-03T01:53:14.247Z,85.31
2022-10-03T01:54:42.356Z,85.42
2022-10-03T01:56:04.690Z,85.43
2022-10-03T01:57:21.345Z,85.36
2022-10-03T01:58:46.493Z,85.43
2022-10-03T02:00:23.665Z,85.32
2022-10-03T02:02:02.568Z,85.15
2022-10-03T02:03:10.238Z,85.48
2022-10-03T02:04:26.799Z,85.81
2022-10-03T02:05:47.437Z,85.50
2022-10-03T02:07:05.017Z,85.57
2022-10-03T02:08:30.197Z,85.87
2022-10-03T02:09:59.598Z,86.01
2022-10-03T02:11:08.673Z,86.38
2022-10-03T02:12:13.188Z,85.64
2022-10-03T02:13:46.612Z,85.49
2022-10-03T02:15:13.676Z,85.42
2022-10-03T02:16:41.926Z,85.78
2022-10-03T02:18:02.035Z,85.66
2022-10-03T02:19:10.592Z,85.33
2022-10-03T02:20:27.659Z,85.40
2022-10-03T02:21:31.705Z,85.89
2022-10-03T02:22:44.576Z,85.64
2022-10-03T02:23:48.123Z,85.54
2022-10-03T02:25:02.225Z,85.51
2022-10-03T02:26:31.368Z,85.47
2022-10-03T02:27:55.411Z,85.36
2022-10-03T02:29:12.361Z,85.44
2022-10-03T02:30:14.091Z,86.14
2022-10-03T02:32:04.566Z,85.68
2022-10-03T02:33:36.310Z,85.58
2022-10-03T02:35:10.556Z,85.58
2022-10-03T02:36:17.948Z,85.18
2022-10-03T02:37:25.181Z,85.07
2022-10-03T02:38:52.160Z,84.90
2022-10-03T02:40:37.353Z,86.02
2022-10-03T02:42:00.178Z,85.54
2022-10-03T02:43:31.155Z,86.46
2022-10-03T02:45:09.821Z,85.52
2022-10-03T02:46:48.884Z,85.69
2022-10-03T02:48:27.450Z,85.36
2022-10-03T02:49:53.817Z,85.14
2022-10-03T02:50:55.238Z,85.46
2022-10-03T02:52:15.847Z,84.91
2022-10-03T02:53:48.899Z,84.73
2022-10-03T02:55:08.661Z,84.72
2022-10-03T02:56:13.071Z,85.17
2022-10-03T02:57:26.817Z,85.12
2022-10-03T02:59:10.208Z,85.18
2022-10-03T03:00:16.493Z,85.94
2022-10-03T03:01:36.837Z,85.64
2022-10-03T03:02:47.492Z,85.91
2022-10-03T03:04:16.848Z,85.62
2022-10-03T03:05:36.043Z,85.46
2022-10-03T03:06:46.335Z,85.50
2022-10-03T03:07:50.678Z,85.53
2022-10-03T03:09:17.544Z,85.99
2022-10-03T03:10:38.015Z,86.27
2022-10-03T03:12:07.507Z,85.76
2022-10-03T03:13:27.878Z,85.61
2022-10-03T03:14:56.939Z,85.94
2022-10-03T03:16:16.553Z,85.12
2022-10-03T03:17:18.298Z,85.97
2022-10-03T03:18:22.782Z,85.30
2022-10-03T03:19:40.812Z,85.11
2022-10-03T03:21:01.366Z,85.64
2022-10-03T03:22:11.761Z,85.35
2022-10-03T03:23:35.630Z,85.12
2022-10-03T03:25:21.342Z,85.00
2022-10-03T03:26:55.059Z,85.36
2022-10-03T03:28:21.456Z,84.99
2022-10-03T03:29:42.211Z,84.85
2022-10-03T03:31:00.073Z,84.98
2022-10-03T03:32:07.367Z,85.16
2022-10-03T03:33:35.174Z,84.76
2022-10-03T03:34:48.746Z,84.92
2022-10-03T03:36:08.701Z,84.59
2022-10-03T03:37:31.478Z,84.76
2022-10-03T03:38:55.885Z,84.57
2022-10-03T03:40:14.705Z,84.48
2022-10-03T03:41:44.681Z,84.74
2022-10-03T03:43:14.632Z,84.76
2022-10-03T03:44:19.170Z,86.06
2022-10-03T03:45:49.027Z,84.96
2022-10-03T03:47:14.020Z,85.93
2022-10-03T03:48:37.696Z,84.78
2022-10-03T03:50:12.955Z,84.71
2022-10-03T03:51:26.422Z,84.64
2022-10-03T03:52:46.982Z,84.22
2022-10-03T03:53:54.486Z,83.99
2022-10-03T03:55:40.355Z,84.13
2022-10-03T03:56:59.470Z,84.15
2022-10-03T03:58:01.385Z,84.38
2022-10-03T03:59:38.482Z,84.51
2022-10-03T04:01:03.503Z,84.67
2022-10-03T04:02:43.281Z,84.52
2022-10-03T04:04:03.654Z,84.59
2022-10-03T04:05:34.331Z,84.56
2022-10-03T04:06:50.798Z,84.43
2022-10-03T04:07:52.323Z,85.15
2022-10-03T04:09:31.350Z,84.95
2022-10-03T04:10:54.182Z,87.49
2022-10-03T04:12:16.638Z,85.10
2022-10-03T04:13:47.138Z,85.66
2022-10-03T04:15:08.709Z,84.83
2022-10-03T04:17:16.298Z,84.81
2022-10-03T04:18:57.834Z,85.80
2022-10-03T04:20:10.541Z,84.83
2022-10-03T04:21:19.421Z,85.78
2022-10-03T04:22:50.524Z,85.61
2022-10-03T04:24:20.165Z,85.67
2022-10-03T04:25:27.889Z,85.08
2022-10-03T04:26:47.817Z,84.70
2022-10-03T04:27:49.450Z,84.41
2022-10-03T04:29:32.400Z,84.89
2022-10-03T04:30:37.313Z,84.18
2022-10-03T04:31:56.483Z,84.43
2022-10-03T04:33:24.803Z,84.89
2022-10-03T04:34:32.182Z,84.80
2022-10-03T04:36:07.639Z,84.18
2022-10-03T04:37:23.711Z,84.34
2022-10-03T04:38:43.797Z,84.32
2022-10-03T04:39:51.082Z,84.51
2022-10-03T04:41:11.836Z,84.57
2022-10-03T04:42:13.507Z,86.04
2022-10-03T04:43:39.730Z,85.04
2022-10-03T04:45:19.826Z,84.80
2022-10-03T04:46:39.050Z,84.70
2022-10-03T04:47:54.299Z,84.54
2022-10-03T04:49:01.890Z,85.60
2022-10-03T04:50:25.118Z,85.61
2022-10-03T04:51:55.553Z,84.45
2022-10-03T04:53:25.065Z,84.95
2022-10-03T04:54:39.373Z,84.57
2022-10-03T04:55:45.275Z,85.04
2022-10-03T04:56:52.947Z,83.99
2022-10-03T04:58:16.182Z,83.93
2022-10-03T04:59:42.999Z,83.57
2022-10-03T05:01:05.702Z,83.41
2022-10-03T05:02:16.456Z,83.10
2022-10-03T05:03:33.356Z,83.18
2022-10-03T05:04:44.705Z,84.31
2022-10-03T05:05:56.584Z,83.13
2022-10-03T05:07:13.728Z,83.82
2022-10-03T05:08:45.984Z,83.17
2022-10-03T05:09:52.036Z,82.77
2022-10-03T05:11:07.469Z,82.72
2022-10-03T05:12:27.286Z,82.94
2022-10-03T05:13:50.666Z,83.69
2022-10-03T05:15:10.287Z,83.05
2022-10-03T05:16:18.941Z,82.36
2022-10-03T05:17:29.619Z,82.39
2022-10-03T05:18:44.927Z,82.66
2022-10-03T05:19:53.069Z,82.57
2022-10-03T05:20:54.793Z,82.59
2022-10-03T05:22:29.659Z,82.33
2022-10-03T05:24:02.196Z,84.49
2022-10-03T05:25:22.307Z,82.56
2022-10-03T05:26:44.690Z,81.90
2022-10-03T05:27:53.768Z,84.16
2022-10-03T05:29:20.357Z,81.84
2022-10-03T05:30:34.479Z,82.14
2022-10-03T05:31:46.170Z,81.95
2022-10-03T05:33:04.984Z,80.83
2022-10-03T05:34:33.915Z,80.90
2022-10-03T05:35:45.138Z,80.67
2022-10-03T05:37:09.258Z,80.76
2022-10-03T05:38:25.877Z,81.65
2022-10-03T05:39:45.127Z,81.54
2022-10-03T05:41:18.584Z,80.46
2022-10-03T05:42:50.590Z,80.43
2022-10-03T05:44:10.787Z,81.29
2022-10-03T05:45:12.343Z,79.78
2022-10-03T05:46:34.905Z,80.13
2022-10-03T05:47:51.029Z,81.69
2022-10-03T05:49:23.186Z,80.94
2022-10-03T05:50:34.439Z,79.78
2022-10-03T05:51:45.807Z,79.18
2022-10-03T05:53:18.351Z,79.09
2022-10-03T05:54:54.644Z,79.20
2022-10-03T05:56:38.926Z,78.33
2022-10-03T05:58:01.518Z,78.38
2022-10-03T05:59:09.183Z,79.05
2022-10-03T06:00:50.325Z,79.49
2022-10-03T06:02:32.107Z,78.89
2022-10-03T06:04:15.030Z,81.80
2022-10-03T06:05:39.403Z,78.82
2022-10-03T06:07:02.676Z,79.18
2022-10-03T06:08:32.106Z,78.71
2022-10-03T06:09:42.603Z,78.77
2022-10-03T06:11:17.119Z,78.61
2022-10-03T06:12:36.838Z,77.96
2022-10-03T06:14:05.404Z,78.29
2022-10-03T06:15:33.125Z,77.66
2022-10-03T06:16:55.863Z,78.93
2022-10-03T06:18:16.040Z,78.68
2022-10-03T06:19:53.141Z,77.56
2022-10-03T06:21:13.458Z,77.36
2022-10-03T06:22:33.164Z,77.92
2022-10-03T06:23:46.696Z,77.85
2022-10-03T06:25:16.353Z,77.84
2022-10-03T06:26:44.788Z,78.31
2022-10-03T06:28:17.646Z,78.43
2022-10-03T06:29:42.114Z,77.87
2022-10-03T06:31:32.072Z,77.00
2022-10-03T06:33:15.512Z,76.59
2022-10-03T06:34:30.781Z,76.59
2022-10-03T06:35:45.742Z,76.56
2022-10-03T06:37:00.448Z,75.67
2022-10-03T06:38:20.746Z,75.68
2022-10-03T06:39:41.077Z,78.42
2022-10-03T06:41:07.105Z,78.81
2022-10-03T06:42:36.963Z,78.09
2022-10-03T06:44:00.576Z,76.90
2022-10-03T06:45:02.230Z,75.99
2022-10-03T06:46:09.867Z,76.19
2022-10-03T06:47:36.373Z,76.02
2022-10-03T06:48:57.808Z,77.51
2022-10-03T06:50:11.998Z,76.09
2022-10-03T06:51:42.797Z,75.48
2022-10-03T06:52:48.519Z,74.57
2022-10-03T06:54:08.755Z,75.26
2022-10-03T06:55:40.020Z,73.53
2022-10-03T06:57:03.979Z,73.58
2022-10-03T06:58:30.343Z,73.70
2022-10-03T07:00:09.451Z,73.94
2022-10-03T07:01:11.382Z,76.35
2022-10-03T07:02:45.725Z,74.86
2022-10-03T07:03:50.608Z,75.26
2022-10-03T07:05:40.514Z,74.67
2022-10-03T07:07:04.692Z,72.19
2022-10-03T07:08:15.799Z,73.67
2022-10-03T07:09:53.077Z,74.11
2022-10-03T07:11:28.716Z,74.46
2022-10-03T07:12:51.991Z,73.21
2022-10-03T07:13:56.640Z,72.85
2022-10-03T07:15:07.021Z,73.87
2022-10-03T07:16:27.882Z,72.68
2022-10-03T07:17:58.799Z,73.71
2022-10-03T07:19:06.074Z,72.87
2022-10-03T07:20:48.102Z,73.29
2022-10-03T07:22:19.289Z,73.65
2022-10-03T07:23:32.990Z,73.18
2022-10-03T07:24:52.948Z,74.67
2022-10-03T07:26:13.112Z,73.73
2022-10-03T07:27:26.980Z,75.68
2022-10-03T07:28:37.669Z,73.60
2022-10-03T07:29:58.051Z,73.78
2022-10-03T07:31:18.537Z,73.67
2022-10-03T07:32:34.936Z,73.11
2022-10-03T07:33:48.580Z,72.98
2022-10-03T07:35:08.418Z,73.36
2022-10-03T07:36:50.880Z,74.40
2022-10-03T07:38:35.735Z,74.36
2022-10-03T07:40:05.905Z,74.49
2022-10-03T07:41:24.209Z,74.47
2022-10-03T07:42:53.428Z,75.58
2022-10-03T07:44:15.461Z,72.78
2022-10-03T07:45:20.006Z,73.06
2022-10-03T07:46:21.788Z,73.47
2022-10-03T07:47:38.528Z,74.24
2022-10-03T07:49:01.889Z,75.01
2022-10-03T07:50:09.545Z,74.44
2022-10-03T07:51:21.046Z,75.53
2022-10-03T07:52:41.305Z,75.21
2022-10-03T07:54:10.038Z,77.76
2022-10-03T07:55:42.052Z,77.19
2022-10-03T07:56:52.620Z,78.27
2022-10-03T07:57:56.866Z,76.06
2022-10-03T07:59:27.486Z,76.01
2022-10-03T08:00:43.995Z,76.43
2022-10-03T08:02:08.629Z,76.82
2022-10-03T08:03:46.601Z,77.31
2022-10-03T08:05:30.404Z,77.24
2022-10-03T08:06:42.830Z,76.10
2022-10-03T08:08:03.329Z,75.02
2022-10-03T08:09:11.228Z,74.70
2022-10-03T08:10:22.112Z,75.62
2022-10-03T08:11:35.558Z,73.40
2022-10-03T08:13:05.586Z,73.18
2022-10-03T08:14:41.974Z,74.60
2022-10-03T08:16:20.094Z,75.93
2022-10-03T08:17:36.831Z,75.82
2022-10-03T08:18:57.020Z,78.08
2022-10-03T08:20:22.567Z,75.69
2022-10-03T08:22:11.235Z,75.28
2022-10-03T08:23:19.183Z,78.67
2022-10-03T08:24:47.724Z,75.61
2022-10-03T08:26:01.108Z,76.39
2022-10-03T08:27:51.265Z,75.00
2022-10-03T08:29:23.102Z,73.91
2022-10-03T08:30:53.936Z,74.22
2022-10-03T08:32:17.476Z,77.21
2022-10-03T08:33:31.503Z,77.27
2022-10-03T08:34:45.118Z,76.00
2022-10-03T08:35:59.013Z,77.12
2022-10-03T08:37:21.466Z,76.06
2022-10-03T08:38:28.101Z,77.50
2022-10-03T08:39:48.954Z,75.88
2022-10-03T08:41:27.534Z,75.76
2022-10-03T08:42:37.952Z,76.60
2022-10-03T08:44:05.915Z,76.31
2022-10-03T08:45:35.395Z,75.90
2022-10-03T08:46:55.590Z,76.82
2022-10-03T08:48:00.373Z,77.29
2022-10-03T08:49:41.205Z,77.38
2022-10-03T08:51:18.075Z,77.17
2022-10-03T08:52:25.955Z,77.09
2022-10-03T08:53:34.443Z,77.66
2022-10-03T08:55:01.749Z,78.15
2022-10-03T08:56:14.575Z,78.19
2022-10-03T08:57:37.935Z,78.60
2022-10-03T08:58:54.621Z,77.95
2022-10-03T09:00:02.854Z,77.07
2022-10-03T09:01:37.453Z,77.85
2022-10-03T09:03:20.458Z,77.58
2022-10-03T09:04:31.881Z,78.71
2022-10-03T09:05:39.549Z,75.49
2022-10-03T09:07:12.082Z,76.47
2022-10-03T09:08:32.792Z,76.95
2022-10-03T09:09:46.243Z,77.30
2022-10-03T09:11:15.852Z,78.24
2022-10-03T09:12:52.050Z,77.76
2022-10-03T09:14:26.605Z,78.09
2022-10-03T09:15:52.997Z,76.52
2022-10-03T09:17:02.164Z,76.59
2022-10-03T09:18:06.951Z,76.50
2022-10-03T09:19:11.596Z,76.08
2022-10-03T09:20:16.421Z,76.55
2022-10-03T09:21:37.175Z,77.28
2022-10-03T09:23:02.243Z,76.28
2022-10-03T09:24:41.283Z,77.19
2022-10-03T09:26:10.987Z,78.26
2022-10-03T09:27:18.231Z,80.77
2022-10-03T09:28:35.214Z,76.73
2022-10-03T09:29:52.024Z,76.19
2022-10-03T09:31:28.790Z,75.75
2022-10-03T09:32:53.344Z,76.02
2022-10-03T09:34:23.191Z,77.03
2022-10-03T09:35:47.771Z,78.84
2022-10-03T09:37:24.501Z,76.91
2022-10-03T09:38:38.144Z,75.16
2022-10-03T09:40:17.375Z,76.34
2022-10-03T09:41:32.290Z,75.58
2022-10-03T09:43:13.091Z,75.53
2022-10-03T09:44:20.651Z,75.78
2022-10-03T09:45:43.360Z,74.60
2022-10-03T09:47:28.041Z,75.25
2022-10-03T09:48:36.284Z,74.90
2022-10-03T09:49:37.834Z,75.07
2022-10-03T09:50:57.808Z,74.14
2022-10-03T09:52:40.117Z,74.42
2022-10-03T09:54:16.367Z,74.78
2022-10-03T09:55:30.355Z,75.65
2022-10-03T09:56:38.324Z,74.83
2022-10-03T09:57:46.098Z,74.63
2022-10-03T09:59:13.190Z,74.21
2022-10-03T10:00:45.229Z,74.29
2022-10-03T10:02:17.594Z,74.89
2022-10-03T10:03:48.676Z,74.08
2022-10-03T10:05:35.278Z,73.03
2022-10-03T10:07:16.053Z,73.77
2022-10-03T10:08:41.789Z,72.61
2022-10-03T10:10:06.786Z,70.05
2022-10-03T10:11:35.272Z,70.69
2022-10-03T10:13:11.083Z,73.14
2022-10-03T10:14:56.687Z,71.31
2022-10-03T10:16:25.729Z,72.14
2022-10-03T10:17:46.104Z,70.51
2022-10-03T10:19:24.944Z,71.05
2022-10-03T10:21:08.229Z,73.31
2022-10-03T10:22:09.827Z,71.15
2022-10-03T10:23:20.213Z,71.92
2022-10-03T10:24:35.833Z,72.48
2022-10-03T10:25:58.546Z,73.29
2022-10-03T10:27:17.454Z,75.23
2022-10-03T10:29:08.151Z,73.02
2022-10-03T10:30:15.799Z,72.81
2022-10-03T10:31:48.571Z,73.42
2022-10-03T10:33:08.692Z,73.44
2022-10-03T10:34:45.537Z,73.28
2022-10-03T10:36:22.584Z,73.96
2022-10-03T10:37:46.456Z,74.83
2022-10-03T10:39:20.215Z,74.13
2022-10-03T10:40:59.924Z,74.62
2022-10-03T10:42:13.617Z,73.31
2022-10-03T10:43:52.086Z,73.66
2022-10-03T10:45:30.978Z,73.10
2022-10-03T10:47:13.008Z,75.83
2022-10-03T10:48:20.828Z,78.04
2022-10-03T10:50:07.724Z,73.90
2022-10-03T10:51:11.936Z,73.46
2022-10-03T10:52:22.589Z,73.18
2022-10-03T10:53:52.089Z,72.90
2022-10-03T10:55:31.338Z,76.84
2022-10-03T10:57:01.346Z,73.58
2022-10-03T10:58:45.310Z,73.72
2022-10-03T11:00:11.216Z,72.31
2022-10-03T11:01:31.089Z,72.93
2022-10-03T11:02:50.804Z,72.20
2022-10-03T11:04:14.149Z,72.32
2022-10-03T11:05:40.532Z,71.59
2022-10-03T11:07:07.488Z,71.91
2022-10-03T11:08:50.612Z,72.27
2022-10-03T11:10:30.426Z,72.45
2022-10-03T11:11:51.438Z,70.28
2022-10-03T11:13:22.127Z,71.32
2022-10-03T11:14:45.634Z,69.38
2022-10-03T11:15:59.044Z,67.95
2022-10-03T11:17:38.618Z,68.56
2022-10-03T11:19:08.083Z,69.81
2022-10-03T11:20:47.356Z,70.61
2022-10-03T11:22:12.827Z,68.80
2022-10-03T11:23:37.729Z,67.46
2022-10-03T11:25:26.939Z,67.05
2022-10-03T11:27:02.212Z,65.84
2022-10-03T11:28:27.224Z,67.00
2022-10-03T11:29:59.013Z,69.23
2022-10-03T11:31:16.134Z,66.52
2022-10-03T11:32:55.330Z,67.19
2022-10-03T11:34:33.566Z,67.43
2022-10-03T11:36:31.360Z,65.80
2022-10-03T11:37:57.774Z,66.30
2022-10-03T11:39:06.065Z,65.77
2022-10-03T11:40:22.714Z,65.21
2022-10-03T11:41:39.981Z,68.75
2022-10-03T11:42:52.136Z,67.19
2022-10-03T11:44:24.426Z,69.83
2022-10-03T11:45:32.515Z,69.28
2022-10-03T11:46:53.107Z,69.63
2022-10-03T11:48:10.337Z,70.13
2022-10-03T11:49:30.482Z,72.32
2022-10-03T11:50:41.340Z,75.38
2022-10-03T11:52:02.317Z,74.82
2022-10-03T11:53:07.370Z,72.08
2022-10-03T11:54:30.485Z,75.06
2022-10-03T11:55:54.317Z,75.00
2022-10-03T11:57:13.234Z,69.10
2022-10-03T11:58:40.600Z,74.14
2022-10-03T12:00:22.488Z,72.19
2022-10-03T12:02:21.332Z,70.90
2022-10-03T12:03:30.083Z,70.26
2022-10-03T12:04:44.349Z,70.38
2022-10-03T12:06:26.275Z,69.36
2022-10-03T12:07:57.552Z,71.62
2022-10-03T12:09:12.520Z,71.23
2022-10-03T12:10:24.580Z,71.83
2022-10-03T12:11:32.565Z,70.85
2022-10-03T12:12:49.905Z,72.53
2022-10-03T12:14:12.743Z,71.56
2022-10-03T12:15:29.299Z,69.46
2022-10-03T12:17:09.492Z,71.48
2022-10-03T12:18:49.842Z,67.58
2022-10-03T12:20:03.473Z,66.92
2022-10-03T12:21:12.982Z,67.03
2022-10-03T12:22:41.380Z,71.00
2022-10-03T12:23:55.140Z,68.71
2022-10-03T12:25:06.730Z,66.70
2022-10-03T12:26:16.427Z,67.97
2022-10-03T12:27:43.864Z,66.63
2022-10-03T12:28:52.322Z,70.20
2022-10-03T12:29:58.447Z,64.87
2022-10-03T12:31:10.415Z,63.92
2022-10-03T12:32:36.629Z,62.13
2022-10-03T12:34:15.569Z,62.87
2022-10-03T12:35:35.508Z,64.23
2022-10-03T12:36:50.065Z,64.02
2022-10-03T12:38:06.985Z,62.64
2022-10-03T12:39:27.623Z,65.66
2022-10-03T12:41:13.545Z,65.94
2022-10-03T12:42:31.645Z,65.77
2022-10-03T12:43:39.296Z,64.06
2022-10-03T12:44:41.119Z,65.01
2022-10-03T12:46:01.277Z,67.24
2022-10-03T12:47:43.895Z,74.83
2022-10-03T12:49:00.275Z,68.79
2022-10-03T12:50:14.454Z,67.43
2022-10-03T12:51:48.648Z,65.61
2022-10-03T12:53:08.530Z,67.10
2022-10-03T12:54:38.522Z,64.61
2022-10-03T12:56:00.438Z,64.11
2022-10-03T12:57:35.690Z,63.53
2022-10-03T12:59:07.227Z,64.06
2022-10-03T13:00:26.334Z,65.90
2022-10-03T13:01:33.700Z,65.24
2022-10-03T13:03:02.188Z,62.70
2022-10-03T13:04:42.087Z,68.51
2022-10-03T13:06:01.899Z,64.32
2022-10-03T13:07:18.365Z,60.22
2022-10-03T13:08:31.659Z,59.55
2022-10-03T13:09:55.731Z,61.33
2022-10-03T13:11:17.714Z,56.71
2022-10-03T13:12:45.532Z,60.01
2022-10-03T13:13:58.705Z,60.99
2022-10-03T13:15:19.011Z,56.45
2022-10-03T13:16:34.739Z,56.25
2022-10-03T13:17:55.291Z,56.94
2022-10-03T13:19:09.208Z,55.56
2022-10-03T13:20:25.992Z,56.63
2022-10-03T13:21:45.863Z,58.23
2022-10-03T13:23:13.518Z,55.87
2022-10-03T13:24:17.662Z,53.04
2022-10-03T13:25:24.672Z,52.82
2022-10-03T13:26:51.061Z,51.86
2022-10-03T13:28:22.012Z,51.58
2022-10-03T13:29:29.658Z,55.24
2022-10-03T13:30:50.753Z,50.87
2022-10-03T13:32:00.824Z,51.23
2022-10-03T13:33:11.152Z,49.96
2022-10-03T13:34:20.298Z,51.42
2022-10-03T13:36:01.004Z,51.98
2022-10-03T13:37:16.682Z,53.97
2022-10-03T13:38:40.106Z,50.85
2022-10-03T13:39:56.787Z,49.77
2022-10-03T13:41:12.159Z,53.92
2022-10-03T13:42:22.906Z,52.95
2022-10-03T13:43:37.131Z,48.65
2022-10-03T13:44:48.070Z,54.44
2022-10-03T13:45:56.128Z,50.73
2022-10-03T13:47:41.115Z,51.30
2022-10-03T13:48:51.217Z,52.55
2022-10-03T13:49:56.091Z,49.86
2022-10-03T13:51:16.991Z,52.23
2022-10-03T13:52:27.503Z,52.32
2022-10-03T13:53:41.785Z,62.95
2022-10-03T13:55:18.034Z,56.92
2022-10-03T13:56:38.073Z,50.95
2022-10-03T13:58:15.010Z,55.62
2022-10-03T13:59:53.925Z,51.29
2022-10-03T14:01:32.830Z,52.92
2022-10-03T14:02:59.205Z,55.19
2022-10-03T14:04:46.187Z,51.77
2022-10-03T14:06:11.330Z,51.66
2022-10-03T14:07:35.241Z,53.26
2022-10-03T14:08:48.895Z,54.15
2022-10-03T14:09:57.323Z,53.74
2022-10-03T14:11:21.732Z,53.23
2022-10-03T14:12:56.138Z,53.46
2022-10-03T14:14:05.474Z,54.36
2022-10-03T14:15:26.210Z,55.64
2022-10-03T14:16:47.318Z,54.97
2022-10-03T14:17:49.089Z,55.93
2022-10-03T14:19:09.949Z,56.60
2022-10-03T14:20:23.781Z,57.01
2022-10-03T14:21:34.163Z,58.08
2022-10-03T14:22:50.636Z,57.85
2022-10-03T14:23:58.069Z,58.19
2022-10-03T14:25:11.602Z,59.09
2022-10-03T14:26:35.737Z,59.24
2022-10-03T14:27:46.323Z,60.33
2022-10-03T14:29:01.997Z,60.78
2022-10-03T14:30:09.554Z,61.21
2022-10-03T14:31:45.560Z,61.63
2022-10-03T14:32:52.674Z,61.98
2022-10-03T14:34:00.688Z,63.02
2022-10-03T14:35:28.713Z,64.89
2022-10-03T14:36:51.361Z,64.35
2022-10-03T14:38:06.267Z,63.47
2022-10-03T14:39:25.174Z,64.03
2022-10-03T14:40:36.020Z,65.16
2022-10-03T14:41:52.065Z,64.34
2022-10-03T14:43:18.963Z,64.04
2022-10-03T14:44:28.450Z,63.81
2022-10-03T14:45:36.945Z,65.39
2022-10-03T14:46:43.758Z,65.62
2022-10-03T14:47:53.325Z,65.24
2022-10-03T14:49:02.965Z,65.47
2022-10-03T14:50:06.130Z,65.69
2022-10-03T14:51:32.631Z,70.58
2022-10-03T14:53:06.676Z,73.21
2022-10-03T14:54:19.675Z,65.71
2022-10-03T14:55:30.019Z,67.53
2022-10-03T14:56:42.610Z,67.50
2022-10-03T14:58:09.395Z,70.16
2022-10-03T14:59:19.375Z,71.52
2022-10-03T15:00:44.620Z,71.80
2022-10-03T15:01:49.711Z,68.78
2022-10-03T15:02:51.545Z,66.87
2022-10-03T15:04:07.446Z,67.07
2022-10-03T15:05:34.550Z,67.17
2022-10-03T15:06:45.777Z,72.06
2022-10-03T15:07:48.060Z,67.87
2022-10-03T15:08:54.292Z,67.51
2022-10-03T15:09:57.909Z,67.94
2022-10-03T15:11:00.929Z,69.00
2022-10-03T15:12:23.604Z,67.68
2022-10-03T15:13:27.133Z,67.11
2022-10-03T15:14:32.914Z,68.36
2022-10-03T15:15:38.912Z,68.19
2022-10-03T15:16:49.361Z,69.72
2022-10-03T15:17:54.075Z,68.15
2022-10-03T15:19:04.889Z,69.48
2022-10-03T15:20:11.287Z,69.89
2022-10-03T15:21:15.473Z,69.42
2022-10-03T15:22:35.757Z,68.83
2022-10-03T15:23:42.727Z,67.96
2022-10-03T15:24:46.123Z,69.58
2022-10-03T15:25:53.258Z,70.41
2022-10-03T15:27:01.302Z,69.44
2022-10-03T15:28:08.152Z,68.41
2022-10-03T15:29:17.178Z,68.02
2022-10-03T15:30:29.163Z,68.26
2022-10-03T15:31:42.734Z,68.90
2022-10-03T15:32:47.863Z,70.21
2022-10-03T15:33:52.714Z,67.24
2022-10-03T15:34:59.993Z,72.23
2022-10-03T15:36:14.047Z,71.17
2022-10-03T15:37:22.039Z,69.29
2022-10-03T15:38:29.571Z,68.38
2022-10-03T15:39:35.600Z,69.23
2022-10-03T15:40:40.736Z,74.29
2022-10-03T15:42:01.132Z,70.98
2022-10-03T15:43:27.770Z,76.31
2022-10-03T15:44:38.467Z,74.93
2022-10-03T15:45:41.948Z,72.75
2022-10-03T15:46:57.739Z,71.16
2022-10-03T15:48:03.970Z,70.03
2022-10-03T15:49:16.759Z,70.54
2022-10-03T15:50:34.763Z,71.31
2022-10-03T15:51:39.786Z,70.81
2022-10-03T15:52:51.823Z,75.99
2022-10-03T15:53:57.869Z,70.66
2022-10-03T15:55:11.994Z,72.97
2022-10-03T15:56:19.209Z,71.58
2022-10-03T15:57:29.459Z,70.30
2022-10-03T15:58:37.782Z,70.44
2022-10-03T15:59:44.687Z,73.24
2022-10-03T16:01:00.163Z,71.84
2022-10-03T16:02:27.626Z,71.20
2022-10-03T16:03:36.371Z,70.65
2022-10-03T16:04:40.138Z,70.41
2022-10-03T16:05:57.476Z,72.74
2022-10-03T16:07:10.004Z,73.82
2022-10-03T16:08:20.718Z,72.27
2022-10-03T16:09:30.770Z,72.08
2022-10-03T16:10:40.608Z,71.96
2022-10-03T16:12:01.185Z,72.39
2022-10-03T16:13:12.727Z,74.27
2022-10-03T16:14:17.078Z,74.14
2022-10-03T16:15:37.529Z,74.24
2022-10-03T16:16:47.008Z,72.96
2022-10-03T16:18:08.431Z,72.92
2022-10-03T16:19:37.803Z,75.11
2022-10-03T16:20:48.910Z,75.60
2022-10-03T16:22:01.023Z,73.38
2022-10-03T16:23:19.901Z,77.09
2022-10-03T16:24:36.028Z,78.78
2022-10-03T16:26:03.592Z,74.83
2022-10-03T16:27:12.996Z,74.31
2022-10-03T16:28:21.100Z,74.27
2022-10-03T16:29:32.756Z,74.50
2022-10-03T16:30:44.674Z,77.45
2022-10-03T16:31:55.086Z,74.76
2022-10-03T16:33:02.597Z,74.95
2022-10-03T16:34:14.394Z,76.46
2022-10-03T16:35:48.151Z,75.29
2022-10-03T16:36:50.348Z,74.19
2022-10-03T16:37:54.165Z,75.01
2022-10-03T16:38:59.348Z,74.98
2022-10-03T16:40:07.117Z,75.94
2022-10-03T16:41:22.921Z,77.26
2022-10-03T16:42:29.069Z,76.15
2022-10-03T16:43:32.672Z,79.23
2022-10-03T16:44:50.302Z,78.02
2022-10-03T16:45:54.806Z,76.61
2022-10-03T16:47:02.138Z,77.25
2022-10-03T16:48:31.685Z,77.59
2022-10-03T16:50:03.829Z,78.31
2022-10-03T16:51:16.808Z,76.20
2022-10-03T16:52:23.473Z,77.52
2022-10-03T16:53:26.461Z,76.45
2022-10-03T16:54:30.282Z,76.50
2022-10-03T16:55:47.056Z,77.59
2022-10-03T16:56:56.645Z,79.55
2022-10-03T16:58:25.196Z,80.46
2022-10-03T16:59:29.803Z,78.38
2022-10-03T17:00:41.501Z,78.26
2022-10-03T17:01:49.137Z,77.46
2022-10-03T17:02:52.499Z,79.13
2022-10-03T17:04:15.277Z,78.97
2022-10-03T17:05:18.582Z,77.10
2022-10-03T17:06:36.311Z,77.24
2022-10-03T17:07:51.205Z,77.45
2022-10-03T17:08:57.702Z,77.59
2022-10-03T17:10:02.251Z,77.39
2022-10-03T17:11:07.761Z,78.17
2022-10-03T17:12:22.487Z,77.84
2022-10-03T17:13:39.244Z,77.39
2022-10-03T17:14:42.488Z,77.35